Ncc Reem — 3FPV4 — position and weather

sailwx.info

Track history (hours):
 
Tides and Currents Weather Stations Pressure Air Temp Water Temp Dewpoint Dewpoint Depression Visibility Wind Speed Wind Dir Waves Ship Positions

Ncc Reem

Last reported at 2018-Apr-17 12:01 UTC. Time now 2018-Apr-20 14:23 UTC.
Position N 35°21' E 030°23'.

Length 200 m; draft 6.9 m.

Type: Cargo ship. MMSI: 372930000.

Date/timePositionNaut miles runAvg speedWind from/ knotsBaromVisibWave heightAir tempDewpointWater temp
2018-Apr-17 12:01N 35°21' E 030°23'514.5
2018-Apr-17 11:39N 35°22' E 030°30'214.3
2018-Apr-17 11:30N 35°22' E 030°32'714.3
2018-Apr-17 11:00N 35°23' E 030°41'714.7
2018-Apr-17 10:30N 35°24' E 030°50'814.8
2018-Apr-17 09:58N 35°25' E 030°59'3514.4
2018-Apr-17 07:30N 35°31' E 031°42'914.3
2018-Apr-17 06:55N 35°32' E 031°52'  
2018-Apr-07 15:49N 35°37' E 033°10'412.8
2018-Apr-07 15:30N 35°37' E 033°05'712.6
2018-Apr-07 14:59N 35°35' E 032°57'712.5
2018-Apr-07 14:24N 35°34' E 032°48'512.2
2018-Apr-07 14:00N 35°33' E 032°42'4 8.1
2018-Apr-07 13:30N 35°32' E 032°38'710.6
2018-Apr-07 12:50N 35°31' E 032°29'513.9
2018-Apr-07 12:30N 35°31' E 032°23'  
Track history (hours):
 
Tides and Currents Weather Stations Pressure Air Temp Water Temp Dewpoint Dewpoint Depression Visibility Wind Speed Wind Dir Waves Ship Positions

Ncc Reem

Last reported at 2018-Apr-17 12:01 UTC. Time now 2018-Apr-20 14:23 UTC.
Position N 35°21' E 030°23'.

Length 200 m; draft 6.9 m.

Type: Cargo ship. MMSI: 372930000.

Date/timePositionNaut miles runAvg speedWind from/ knotsBaromVisibWave heightAir tempDewpointWater temp
2018-Apr-17 12:01N 35°21' E 030°23'514.5
2018-Apr-17 11:39N 35°22' E 030°30'214.3
2018-Apr-17 11:30N 35°22' E 030°32'714.3
2018-Apr-17 11:00N 35°23' E 030°41'714.7
2018-Apr-17 10:30N 35°24' E 030°50'814.8
2018-Apr-17 09:58N 35°25' E 030°59'3514.4
2018-Apr-17 07:30N 35°31' E 031°42'914.3
2018-Apr-17 06:55N 35°32' E 031°52'  
2018-Apr-07 15:49N 35°37' E 033°10'412.8
2018-Apr-07 15:30N 35°37' E 033°05'712.6
2018-Apr-07 14:59N 35°35' E 032°57'712.5
2018-Apr-07 14:24N 35°34' E 032°48'512.2
2018-Apr-07 14:00N 35°33' E 032°42'4 8.1
2018-Apr-07 13:30N 35°32' E 032°38'710.6
2018-Apr-07 12:50N 35°31' E 032°29'513.9
2018-Apr-07 12:30N 35°31' E 032°23'  

Dump ship's entire track history